Main page
METAR-TAF:

METAR-TAF

Airports :

Adana Şakirpaşa Airport

Adana, Turkey

latitude: 36-59N, longitude: 035-18E, elevation: 20 m

Current weather observation

The report was made 25 minutes ago, at 08:20 UTC
Wind 14 kt from the South/Southwest with gusts up to 24 kt, varying between South and Southwest
Temperature 19°C
Humidity 68%
Pressure 1012 hPa
Visibility 10 km or more
Broken clouds at a height of 3500 ft

METAR: LTAF 030820Z 20014G24KT 170V230 9999 BKN035 19/13 Q1012 NOSIG RMK RWY23 22016KT

Time: 11:45 (08:45 UTC)


TAF: missing

Weather observations and forecasts of more than 4000 airports (METAR and TAF reports).

The available stations are represented by yellow and red dots on the map.

Hover mouse over dot to see the name of the station.

Then click to see weather observations and forecasts.

To change the map : click on the green buttons with a black cross to zoom in, on the green button with a dash to zoom out, or on the green arrows for adjacent maps.


METAR-TAF: